Cohasset, Massachusetts
Current Conditions -  °F | °C
As of 6:54 AM on Sunday 23 Nov 2014 (Local Time) from KBOS Reporting Station
Clear Clear  
Wind Chill: 37°   Ceiling: Unl
Heat Index: 43°   Visibility: 10mi
Dew Point: 28°   Wind: 12mph
Humidity: 56%   Direction: 230°SW
Pressure: 30.1"   Gusts: NA
Location:  42.24°N, 70.8°W
Report Text: KBOS 231154Z 23010KT 10SM CLR 06/M02 A3010 RMK AO2 SLP193 60000 T00611022 10072 20056 53008
Loading
Personal Weather Stations






























Interactive Weather Map New forecast layout! Learn more

10-Day Weather Forecast

Advertisements
Track Severe Weather on mobile